Time;durP1;ratioP1;P1;durP2;ratioP2;P2;SDS_P1;SDS_P2;PMS_P1;PMS_P2;Temp;Humidity;BMP_temperature;BMP_pressure;BME280_temperature;BME280_humidity;BME280_pressure;Samples;Min_cycle;Max_cycle;Signal;HPM_P1;HPM_P2
2022/04/03 00:01:14;;;;;;;0.50;0.50;;;1.30;99.90;;;;;;5015672;28;20181;-92
2022/04/03 00:03:41;;;;;;;0.50;0.50;;;1.40;99.90;;;;;;4979552;28;20272;-92
2022/04/03 00:06:07;;;;;;;0.60;0.60;;;1.40;99.90;;;;;;4994359;28;20185;-92
2022/04/03 00:08:33;;;;;;;0.60;0.60;;;1.30;99.90;;;;;;5015488;28;20458;-93
2022/04/03 00:10:59;;;;;;;0.60;0.60;;;1.30;99.90;;;;;;5001498;28;20434;-92
2022/04/03 00:13:25;;;;;;;0.60;0.60;;;1.20;99.90;;;;;;5012752;28;20227;-91
2022/04/03 00:15:51;;;;;;;0.60;0.60;;;1.20;99.90;;;;;;5016039;28;20461;-93
2022/04/03 00:18:17;;;;;;;0.60;0.60;;;1.20;99.90;;;;;;4993499;28;20977;-92
2022/04/03 00:20:42;;;;;;;0.50;0.50;;;1.20;99.90;;;;;;5000018;28;20435;-91
2022/04/03 00:23:08;;;;;;;0.50;0.50;;;1.30;99.90;;;;;;5020837;28;20450;-92
2022/04/03 00:25:35;;;;;;;0.70;0.70;;;1.20;99.90;;;;;;5015728;28;20192;-91
2022/04/03 00:28:00;;;;;;;0.70;0.70;;;1.20;99.90;;;;;;4997590;28;20439;-91
2022/04/03 00:30:26;;;;;;;0.57;0.57;;;1.00;99.90;;;;;;5014921;28;20443;-92
2022/04/03 00:32:51;;;;;;;0.70;0.70;;;1.00;99.90;;;;;;5022703;28;20262;-93
2022/04/03 00:35:20;;;;;;;0.60;0.60;;;1.00;99.90;;;;;;5002144;28;20184;-93
2022/04/03 00:37:46;;;;;;;1.30;1.20;;;0.90;99.90;;;;;;5016669;28;20623;-92
2022/04/03 00:40:12;;;;;;;0.97;0.97;;;0.80;99.90;;;;;;5035959;28;20422;-93
2022/04/03 00:42:39;;;;;;;0.67;0.67;;;0.70;99.90;;;;;;5017554;28;20538;-92
2022/04/03 00:45:05;;;;;;;0.60;0.60;;;0.80;99.90;;;;;;5014266;28;20851;-93
2022/04/03 00:47:31;;;;;;;0.80;0.80;;;0.60;99.90;;;;;;5013504;28;20443;-93
2022/04/03 00:49:58;;;;;;;1.07;1.07;;;0.60;99.90;;;;;;4997764;28;20818;-93
2022/04/03 00:52:24;;;;;;;0.70;0.70;;;0.60;99.90;;;;;;5016227;28;20435;-93
2022/04/03 00:54:49;;;;;;;0.60;0.60;;;0.50;99.90;;;;;;5027336;28;20493;-93
2022/04/03 00:57:15;;;;;;;0.57;0.57;;;0.70;99.90;;;;;;5025746;28;20431;-93
2022/04/03 00:59:44;;;;;;;0.70;0.70;;;0.70;99.90;;;;;;5012359;28;20188;-93
2022/04/03 01:02:10;;;;;;;0.60;0.60;;;0.60;99.90;;;;;;5017537;28;21860;-92
2022/04/03 01:04:37;;;;;;;0.50;0.50;;;0.50;99.90;;;;;;5007536;28;20487;-92
2022/04/03 01:07:03;;;;;;;0.60;0.60;;;0.40;99.90;;;;;;4998273;28;20510;-93
2022/04/03 01:09:28;;;;;;;0.60;0.60;;;0.50;99.90;;;;;;5016997;28;20526;-93
2022/04/03 01:11:54;;;;;;;0.53;0.53;;;0.60;99.90;;;;;;5011673;28;20945;-93
2022/04/03 01:14:33;;;;;;;0.60;0.60;;;0.60;99.90;;;;;;5021993;28;20698;-93
2022/04/03 01:16:59;;;;;;;0.60;0.60;;;0.40;99.90;;;;;;4997002;28;20172;-92
2022/04/03 01:19:25;;;;;;;0.70;0.70;;;0.40;99.90;;;;;;5018808;28;20441;-93
2022/04/03 01:21:51;;;;;;;0.60;0.60;;;0.50;99.90;;;;;;5010286;28;20609;-93
2022/04/03 01:24:26;;;;;;;0.70;0.70;;;0.30;99.90;;;;;;4994006;28;20172;-93
2022/04/03 01:26:53;;;;;;;0.50;0.50;;;0.20;99.90;;;;;;5008336;28;20203;-92
2022/04/03 01:29:19;;;;;;;0.60;0.60;;;0.30;99.90;;;;;;4997605;28;20442;-93
2022/04/03 01:31:46;;;;;;;0.60;0.60;;;0.20;99.90;;;;;;4995275;28;20446;-92
2022/04/03 01:34:13;;;;;;;0.63;0.63;;;0.20;99.90;;;;;;4995401;28;20974;-94
2022/04/03 01:36:39;;;;;;;0.70;0.70;;;0.20;99.90;;;;;;5014511;28;20498;-93
2022/04/03 01:39:05;;;;;;;0.70;0.70;;;0.40;99.90;;;;;;5014732;28;20526;-92
2022/04/03 01:41:30;;;;;;;0.50;0.50;;;0.50;99.90;;;;;;4999275;28;20534;-92
2022/04/03 01:43:56;;;;;;;0.70;0.70;;;0.50;99.90;;;;;;5026466;28;20321;-93
2022/04/03 01:46:22;;;;;;;0.63;0.63;;;0.40;99.90;;;;;;5021286;28;20228;-92
2022/04/03 01:48:47;;;;;;;0.70;0.70;;;0.30;99.90;;;;;;4996664;28;20188;-93
2022/04/03 01:51:13;;;;;;;0.70;0.70;;;0.30;99.90;;;;;;5000344;28;20187;-92
2022/04/03 01:53:38;;;;;;;0.70;0.70;;;0.30;99.90;;;;;;5000817;28;20688;-92
2022/04/03 01:56:06;;;;;;;0.50;0.50;;;0.30;99.90;;;;;;4995556;28;20234;-92
2022/04/03 01:58:32;;;;;;;0.50;0.50;;;0.20;99.90;;;;;;4996717;28;20180;-93
2022/04/03 02:00:58;;;;;;;0.60;0.60;;;0.20;99.90;;;;;;4995498;28;20530;-93
2022/04/03 02:03:25;;;;;;;0.70;0.70;;;0.20;99.90;;;;;;4998341;28;20562;-93
2022/04/03 02:05:50;;;;;;;0.70;0.70;;;0.10;99.90;;;;;;4996329;28;20675;-92
2022/04/03 02:08:16;;;;;;;0.60;0.60;;;0.10;99.90;;;;;;5003691;28;20435;-93
2022/04/03 02:10:42;;;;;;;0.70;0.70;;;0.20;99.90;;;;;;5001707;28;20192;-92
2022/04/03 02:13:08;;;;;;;0.60;0.60;;;0.20;99.90;;;;;;5013490;28;20473;-92
2022/04/03 02:15:33;;;;;;;0.67;0.67;;;0.10;99.90;;;;;;5013072;28;21011;-92
2022/04/03 02:17:59;;;;;;;0.70;0.70;;;0.10;99.90;;;;;;5017583;28;20266;-93
2022/04/03 02:20:25;;;;;;;0.60;0.60;;;0.10;99.90;;;;;;4999057;28;20191;-93
2022/04/03 02:22:50;;;;;;;0.60;0.60;;;0.10;99.90;;;;;;4997251;28;20711;-93
2022/04/03 02:25:16;;;;;;;0.70;0.70;;;0.20;99.90;;;;;;5002059;28;20180;-92
2022/04/03 02:27:44;;;;;;;0.60;0.60;;;0.20;99.90;;;;;;5018871;28;20263;-93
2022/04/03 02:30:10;;;;;;;0.50;0.50;;;0.10;99.90;;;;;;5010713;28;20270;-93
2022/04/03 02:32:40;;;;;;;0.50;0.50;;;0.20;99.90;;;;;;4994859;28;20638;-93
2022/04/03 02:35:08;;;;;;;0.60;0.60;;;0.30;99.90;;;;;;4998566;28;20920;-93
2022/04/03 02:37:39;;;;;;;0.70;0.70;;;0.00;99.90;;;;;;4997160;28;20413;-92
2022/04/03 02:40:07;;;;;;;0.50;0.50;;;-0.10;99.90;;;;;;5025054;28;20442;-93
2022/04/03 02:42:32;;;;;;;0.60;0.60;;;-0.10;99.90;;;;;;5003064;28;20526;-92
2022/04/03 02:44:58;;;;;;;0.53;0.53;;;0.00;99.90;;;;;;5005866;28;20519;-93
2022/04/03 02:47:25;;;;;;;0.60;0.60;;;-0.10;99.90;;;;;;5008463;28;20256;-93
2022/04/03 02:49:51;;;;;;;0.70;0.70;;;0.00;99.90;;;;;;5002256;28;20215;-92
2022/04/03 02:52:17;;;;;;;0.70;0.70;;;-0.10;99.90;;;;;;4996927;28;20968;-93
2022/04/03 02:54:44;;;;;;;0.63;0.63;;;-0.10;99.90;;;;;;4996862;28;20602;-93
2022/04/03 02:57:17;;;;;;;0.60;0.60;;;0.00;99.90;;;;;;4997347;28;20451;-92
2022/04/03 02:59:43;;;;;;;0.60;0.60;;;-0.10;99.90;;;;;;4993305;28;20454;-93
2022/04/03 03:02:10;;;;;;;0.70;0.70;;;-0.20;99.90;;;;;;5000145;28;20450;-93
2022/04/03 03:04:36;;;;;;;0.60;0.60;;;-0.20;99.90;;;;;;4996447;28;20448;-92
2022/04/03 03:07:06;;;;;;;0.70;0.70;;;-0.10;99.90;;;;;;5004546;28;20438;-92
2022/04/03 03:09:32;;;;;;;0.70;0.70;;;-0.20;99.90;;;;;;5012388;28;20453;-93
2022/04/03 03:11:59;;;;;;;0.70;0.70;;;-0.20;99.90;;;;;;5018016;28;20435;-93
2022/04/03 03:14:26;;;;;;;0.53;0.53;;;-0.30;99.90;;;;;;4996145;28;20974;-93
2022/04/03 03:16:52;;;;;;;0.70;0.70;;;-0.20;99.90;;;;;;4993363;28;20447;-94
2022/04/03 03:19:17;;;;;;;0.70;0.70;;;-0.10;99.90;;;;;;4995222;28;20509;-93
2022/04/03 03:21:44;;;;;;;0.60;0.60;;;-0.10;99.90;;;;;;4995619;28;20184;-93
2022/04/03 03:24:09;;;;;;;0.70;0.70;;;-0.10;99.90;;;;;;5013088;28;20176;-93
2022/04/03 03:26:38;;;;;;;0.70;0.70;;;0.00;99.90;;;;;;5012748;28;20439;-94
2022/04/03 03:29:04;;;;;;;0.60;0.60;;;0.00;99.90;;;;;;4993934;28;20183;-92
2022/04/03 03:31:30;;;;;;;0.70;0.70;;;0.00;99.90;;;;;;5012750;28;20489;-92
2022/04/03 03:33:55;;;;;;;0.67;0.67;;;-0.20;99.90;;;;;;4995080;28;20475;-93
2022/04/03 03:36:21;;;;;;;0.60;0.60;;;-0.30;99.90;;;;;;4992264;28;20169;-93
2022/04/03 03:39:10;;;;;;;0.60;0.60;;;-0.20;99.90;;;;;;4994525;28;21932;-92
2022/04/03 03:41:55;;;;;;;;;;;;;;;;;;;;;
2022/04/03 03:44:21;;;;;;;0.70;0.70;;;-0.40;99.90;;;;;;5011606;28;20455;-92
2022/04/03 03:46:47;;;;;;;0.60;0.60;;;-0.20;99.90;;;;;;5002122;28;20440;-93
2022/04/03 03:49:14;;;;;;;0.67;0.67;;;-0.50;99.90;;;;;;4993922;28;20454;-93
2022/04/03 03:52:45;;;;;;;0.67;0.67;;;-0.40;99.90;;;;;;5007862;28;20210;-93
2022/04/03 03:54:57;;;;;;;0.70;0.70;;;-0.50;99.90;;;;;;4977418;28;20497;-94
2022/04/03 03:57:23;;;;;;;0.67;0.67;;;-0.40;99.90;;;;;;5014571;28;20588;-93
2022/04/03 04:00:01;;;;;;;0.70;0.70;;;-0.40;99.90;;;;;;4988466;28;20437;-93
2022/04/03 04:02:27;;;;;;;0.70;0.70;;;-0.50;99.90;;;;;;5003557;28;20195;-93
2022/04/03 04:08:30;;;;;;;;;;;;;;;;;;;;;
2022/04/03 04:10:54;;;;;;;0.80;0.80;;;-0.50;99.90;;;;;;5010306;28;20435;-92
2022/04/03 04:13:20;;;;;;;0.70;0.70;;;-0.20;99.90;;;;;;4987570;28;21021;-93
2022/04/03 04:15:45;;;;;;;0.70;0.70;;;-0.10;99.90;;;;;;5017074;28;20533;-92
2022/04/03 04:18:11;;;;;;;0.70;0.70;;;-0.40;99.90;;;;;;5016559;28;20321;-93
2022/04/03 04:20:37;;;;;;;0.70;0.70;;;-0.40;99.90;;;;;;4998527;28;20633;-92
2022/04/03 04:27:03;;;;;;;;;;;;;;;;;;;;;
2022/04/03 04:32:54;;;;;;;0.70;0.70;;;-0.20;99.90;;;;;;4907616;29;20516;-93
2022/04/03 04:36:11;;;;;;;0.60;0.60;;;-0.20;99.90;;;;;;4991598;28;20462;-93
2022/04/03 04:38:37;;;;;;;0.67;0.67;;;-0.30;99.90;;;;;;4983392;28;20192;-93
2022/04/03 04:41:04;;;;;;;0.70;0.70;;;-0.10;99.90;;;;;;4994227;28;20439;-93
2022/04/03 04:43:30;;;;;;;0.80;0.80;;;-0.20;99.90;;;;;;4997629;28;20435;-91
2022/04/03 04:45:56;;;;;;;0.80;0.80;;;0.00;99.90;;;;;;5012682;28;20501;-93
2022/04/03 04:48:21;;;;;;;0.80;0.80;;;0.00;99.90;;;;;;4996894;28;21125;-92
2022/04/03 04:50:47;;;;;;;0.70;0.70;;;0.00;99.90;;;;;;4994526;28;20227;-92
2022/04/03 04:53:12;;;;;;;0.80;0.80;;;-0.10;99.90;;;;;;4996172;28;20197;-92
2022/04/03 04:55:38;;;;;;;0.70;0.70;;;-0.30;99.90;;;;;;5001522;28;20669;-91
2022/04/03 04:58:04;;;;;;;0.73;0.73;;;-0.10;99.90;;;;;;5015278;28;20431;-93
2022/04/03 05:00:30;;;;;;;0.70;0.70;;;0.00;99.90;;;;;;4999373;28;20513;-93
2022/04/03 05:03:17;;;;;;;0.70;0.70;;;0.10;99.90;;;;;;5014476;28;20211;-92
2022/04/03 05:05:43;;;;;;;0.80;0.80;;;0.10;99.90;;;;;;5010448;28;20994;-93
2022/04/03 05:08:09;;;;;;;0.60;0.60;;;0.10;99.90;;;;;;5007800;28;20430;-93
2022/04/03 05:10:34;;;;;;;0.80;0.80;;;0.10;99.90;;;;;;5014287;28;20223;-92
2022/04/03 05:13:17;;;;;;;0.80;0.80;;;0.10;99.90;;;;;;5000947;28;20192;-92
2022/04/03 05:15:42;;;;;;;0.77;0.77;;;0.10;99.90;;;;;;4995168;28;20560;-92
2022/04/03 05:18:08;;;;;;;0.63;0.63;;;0.20;99.90;;;;;;5007701;28;20530;-92
2022/04/03 05:20:33;;;;;;;0.60;0.60;;;0.30;99.90;;;;;;4995499;28;20193;-91
2022/04/03 05:22:59;;;;;;;0.63;0.63;;;0.30;99.90;;;;;;5010924;28;20195;-92
2022/04/03 05:25:25;;;;;;;0.80;0.80;;;0.20;99.90;;;;;;4998454;28;20557;-92
2022/04/03 05:27:50;;;;;;;0.60;0.60;;;0.20;99.90;;;;;;5013502;28;20192;-93
2022/04/03 05:30:16;;;;;;;0.60;0.60;;;0.20;99.90;;;;;;4995406;28;20271;-92
2022/04/03 05:32:42;;;;;;;0.60;0.60;;;0.30;99.90;;;;;;5014994;28;20181;-93
2022/04/03 05:35:10;;;;;;;0.60;0.60;;;0.40;99.90;;;;;;5015067;28;20216;-93
2022/04/03 05:37:37;;;;;;;0.70;0.70;;;0.40;99.90;;;;;;4993010;28;20436;-93
2022/04/03 05:40:04;;;;;;;0.70;0.70;;;0.30;99.90;;;;;;5008774;28;20463;-94
2022/04/03 05:42:33;;;;;;;0.60;0.60;;;0.40;99.90;;;;;;5013047;28;20533;-93
2022/04/03 05:44:59;;;;;;;0.70;0.70;;;0.40;99.90;;;;;;4996320;28;20505;-92
2022/04/03 05:47:24;;;;;;;0.60;0.60;;;0.50;99.90;;;;;;5013050;28;20443;-92
2022/04/03 05:49:50;;;;;;;0.60;0.60;;;0.50;99.90;;;;;;4999059;28;20793;-92
2022/04/03 05:52:15;;;;;;;0.60;0.60;;;0.50;99.90;;;;;;5005105;28;20327;-93
2022/04/03 05:54:41;;;;;;;0.60;0.60;;;0.50;99.90;;;;;;4981489;28;20247;-94
2022/04/03 05:57:09;;;;;;;0.60;0.60;;;0.60;99.90;;;;;;5008782;28;20189;-93
2022/04/03 05:59:34;;;;;;;0.70;0.70;;;0.70;99.90;;;;;;5012227;28;20217;-94
2022/04/03 06:02:00;;;;;;;0.50;0.50;;;0.90;99.90;;;;;;5003675;28;20454;-93
2022/04/03 06:04:25;;;;;;;0.60;0.60;;;0.90;99.90;;;;;;5009253;28;20193;-92
2022/04/03 06:06:51;;;;;;;0.70;0.70;;;1.10;99.90;;;;;;5012817;28;20191;-92
2022/04/03 06:09:16;;;;;;;0.60;0.60;;;1.20;99.90;;;;;;5012530;28;20188;-95
2022/04/03 06:11:42;;;;;;;0.60;0.60;;;1.30;99.90;;;;;;4996472;28;20184;-93
2022/04/03 06:14:07;;;;;;;0.60;0.60;;;1.60;99.90;;;;;;4996769;28;20298;-94
2022/04/03 06:16:33;;;;;;;0.43;0.43;;;1.60;99.90;;;;;;5012316;28;20180;-93
2022/04/03 06:18:58;;;;;;;0.60;0.60;;;1.70;99.90;;;;;;4994609;28;20583;-93
2022/04/03 06:21:24;;;;;;;0.57;0.57;;;1.70;99.90;;;;;;5012270;28;20177;-93
2022/04/03 06:23:50;;;;;;;0.50;0.50;;;1.80;99.90;;;;;;5010933;28;20184;-93
2022/04/03 06:26:15;;;;;;;0.57;0.57;;;2.00;99.90;;;;;;5009606;28;20180;-92
2022/04/03 06:28:41;;;;;;;0.50;0.50;;;2.20;99.90;;;;;;5011216;28;20193;-91
2022/04/03 06:31:06;;;;;;;0.50;0.50;;;2.80;99.90;;;;;;5005965;28;20276;-91
2022/04/03 06:33:32;;;;;;;0.50;0.50;;;2.80;99.90;;;;;;5005060;28;20299;-92
2022/04/03 06:35:58;;;;;;;0.40;0.40;;;2.60;99.90;;;;;;4992594;28;20204;-91
2022/04/03 06:38:24;;;;;;;0.53;0.53;;;2.70;99.90;;;;;;4988239;28;20184;-91
2022/04/03 06:40:52;;;;;;;0.50;0.50;;;2.80;99.90;;;;;;5009100;28;20502;-90
2022/04/03 06:43:19;;;;;;;0.70;0.70;;;2.80;99.90;;;;;;4991377;28;20456;-89
2022/04/03 06:45:46;;;;;;;0.60;0.60;;;2.80;99.90;;;;;;4985911;28;20469;-90
2022/04/03 06:48:12;;;;;;;0.40;0.40;;;2.90;99.90;;;;;;4993383;28;20435;-92
2022/04/03 06:50:37;;;;;;;0.50;0.50;;;2.90;99.90;;;;;;5005732;28;20447;-92
2022/04/03 06:53:04;;;;;;;0.50;0.50;;;2.90;99.90;;;;;;4975973;28;20192;-91
2022/04/03 06:55:29;;;;;;;0.50;0.50;;;2.90;99.90;;;;;;4992391;28;20224;-91
2022/04/03 06:57:55;;;;;;;0.40;0.40;;;2.80;99.90;;;;;;4992707;28;20438;-91
2022/04/03 07:00:20;;;;;;;0.50;0.50;;;3.10;99.90;;;;;;4991485;28;20219;-90
2022/04/03 07:02:48;;;;;;;0.50;0.50;;;3.20;99.90;;;;;;4989845;28;20192;-90
2022/04/03 07:05:13;;;;;;;0.50;0.50;;;3.10;99.90;;;;;;4993059;28;20188;-91
2022/04/03 07:07:39;;;;;;;0.43;0.43;;;3.00;99.90;;;;;;4993005;28;20455;-90
2022/04/03 07:10:05;;;;;;;0.53;0.53;;;2.80;99.90;;;;;;4986959;28;20180;-91
2022/04/03 07:12:30;;;;;;;0.50;0.50;;;2.90;99.90;;;;;;4992462;28;20204;-91
2022/04/03 07:14:56;;;;;;;0.50;0.50;;;3.00;99.90;;;;;;4990115;28;20483;-91
2022/04/03 07:17:22;;;;;;;0.50;0.50;;;3.10;99.90;;;;;;5004410;28;20180;-90
2022/04/03 07:19:48;;;;;;;0.50;0.50;;;3.40;99.90;;;;;;4991995;28;20459;-89
2022/04/03 07:22:13;;;;;;;0.50;0.50;;;3.60;99.90;;;;;;4991126;28;20744;-89
2022/04/03 07:24:47;;;;;;;0.50;0.50;;;3.80;99.90;;;;;;5008957;28;20193;-90
2022/04/03 07:27:12;;;;;;;0.50;0.50;;;3.80;99.90;;;;;;5006190;28;20199;-90
2022/04/03 07:29:38;;;;;;;0.40;0.40;;;4.00;99.90;;;;;;5008843;28;20447;-90
2022/04/03 07:32:04;;;;;;;0.50;0.50;;;3.90;99.90;;;;;;5004359;28;20220;-91
2022/04/03 07:34:29;;;;;;;0.40;0.40;;;4.20;99.90;;;;;;5006076;28;20751;-89
2022/04/03 07:36:56;;;;;;;0.40;0.40;;;4.20;99.90;;;;;;5009535;28;20435;-89
2022/04/03 07:39:22;;;;;;;0.40;0.40;;;4.20;99.90;;;;;;4992014;28;20192;-90
2022/04/03 07:41:48;;;;;;;0.50;0.50;;;4.40;99.90;;;;;;5002841;28;20522;-90
2022/04/03 07:44:14;;;;;;;0.50;0.50;;;4.40;99.90;;;;;;4988298;28;20546;-90
2022/04/03 07:46:40;;;;;;;0.40;0.40;;;4.50;99.90;;;;;;4997087;28;20498;-90
2022/04/03 07:49:05;;;;;;;0.40;0.40;;;5.00;99.90;;;;;;5005635;28;20203;-89
2022/04/03 07:51:31;;;;;;;0.40;0.40;;;5.00;99.90;;;;;;4990870;28;20275;-90
2022/04/03 07:53:57;;;;;;;0.40;0.40;;;5.20;99.90;;;;;;4992284;28;20204;-90
2022/04/03 07:56:23;;;;;;;0.40;0.40;;;5.30;99.90;;;;;;5009792;28;21017;-90
2022/04/03 07:58:48;;;;;;;0.40;0.40;;;5.30;99.90;;;;;;5009724;28;20678;-90
2022/04/03 08:01:14;;;;;;;0.40;0.40;;;5.60;99.90;;;;;;5009385;28;20176;-89
2022/04/03 08:03:40;;;;;;;0.40;0.40;;;5.80;99.90;;;;;;5009274;28;20589;-91
2022/04/03 08:06:06;;;;;;;0.53;0.53;;;5.80;99.90;;;;;;4990227;28;20279;-89
2022/04/03 08:08:31;;;;;;;0.30;0.30;;;5.90;99.90;;;;;;5007022;28;20223;-91
2022/04/03 08:10:57;;;;;;;0.60;0.60;;;6.10;99.90;;;;;;4990210;28;20707;-90
2022/04/03 08:13:22;;;;;;;0.30;0.30;;;6.30;99.90;;;;;;5005325;28;20262;-91
2022/04/03 08:15:48;;;;;;;0.30;0.30;;;5.90;99.90;;;;;;4991985;28;20184;-90
2022/04/03 08:18:14;;;;;;;0.40;0.40;;;6.30;99.90;;;;;;5001911;28;20199;-91
2022/04/03 08:20:40;;;;;;;0.40;0.40;;;6.40;99.90;;;;;;5008607;28;21100;-91
2022/04/03 08:23:06;;;;;;;0.30;0.30;;;6.40;99.90;;;;;;5009691;28;20455;-90
2022/04/03 08:25:33;;;;;;;0.33;0.33;;;6.80;99.90;;;;;;4990342;28;20193;-88
2022/04/03 08:28:00;;;;;;;0.30;0.30;;;7.20;99.90;;;;;;4990983;28;20238;-90
2022/04/03 08:30:28;;;;;;;0.30;0.30;;;6.90;99.90;;;;;;5009361;28;20446;-90
2022/04/03 08:32:54;;;;;;;0.20;0.20;;;7.00;99.90;;;;;;4992553;28;20818;-90
2022/04/03 08:35:22;;;;;;;0.30;0.30;;;7.40;99.90;;;;;;4992051;28;20482;-88
2022/04/03 08:37:48;;;;;;;0.30;0.30;;;7.50;99.90;;;;;;5006517;28;20238;-88
2022/04/03 08:40:14;;;;;;;0.30;0.30;;;7.30;99.90;;;;;;5009184;28;20455;-88
2022/04/03 08:42:40;;;;;;;0.30;0.30;;;7.60;99.90;;;;;;4996539;28;20426;-88
2022/04/03 08:45:11;;;;;;;0.40;0.40;;;7.60;99.90;;;;;;4996706;28;20227;-87
2022/04/03 08:47:49;;;;;;;0.50;0.50;;;8.00;99.90;;;;;;4990333;28;20459;-88
2022/04/03 08:50:16;;;;;;;0.30;0.30;;;8.20;99.90;;;;;;5002904;28;20500;-88
2022/04/03 08:52:46;;;;;;;0.57;0.57;;;8.40;99.90;;;;;;5003979;28;20443;-89
2022/04/03 08:55:12;;;;;;;0.50;0.50;;;8.30;99.90;;;;;;4988616;28;20491;-89
2022/04/03 08:57:37;;;;;;;0.30;0.30;;;8.60;99.90;;;;;;5007437;28;20530;-87
2022/04/03 09:00:05;;;;;;;0.20;0.20;;;9.00;99.90;;;;;;5006412;28;20543;-89
2022/04/03 09:02:30;;;;;;;0.20;0.20;;;8.90;99.90;;;;;;4993904;28;20212;-87
2022/04/03 09:04:56;;;;;;;0.30;0.30;;;9.10;99.90;;;;;;4995283;28;20450;-88
2022/04/03 09:07:21;;;;;;;0.27;0.27;;;8.70;99.90;;;;;;4995619;28;20204;-88
2022/04/03 09:09:57;;;;;;;0.30;0.30;;;7.50;99.90;;;;;;4994555;28;20192;-87
2022/04/03 09:12:23;;;;;;;0.30;0.30;;;7.70;99.90;;;;;;4991526;28;20188;-88
2022/04/03 09:14:49;;;;;;;0.30;0.30;;;7.90;99.90;;;;;;5010419;28;20486;-87
2022/04/03 09:17:40;;;;;;;0.30;0.30;;;8.10;99.90;;;;;;4993103;28;20198;-88
2022/04/03 09:20:07;;;;;;;0.30;0.30;;;8.30;99.90;;;;;;4993006;28;20459;-88
2022/04/03 09:22:37;;;;;;;0.30;0.30;;;7.90;99.90;;;;;;5011325;28;20961;-87
2022/04/03 09:25:11;;;;;;;0.30;0.30;;;7.90;99.90;;;;;;4989673;28;20914;-88
2022/04/03 09:27:54;;;;;;;0.30;0.30;;;7.90;99.90;;;;;;4987061;28;20447;-87
2022/04/03 09:30:29;;;;;;;0.20;0.20;;;7.80;99.90;;;;;;4987564;28;20908;-88
2022/04/03 09:32:56;;;;;;;0.30;0.30;;;7.40;99.90;;;;;;4990722;28;20558;-87
2022/04/03 09:35:26;;;;;;;0.30;0.30;;;7.50;99.90;;;;;;4988059;28;20499;-87
2022/04/03 09:38:05;;;;;;;0.30;0.30;;;8.50;99.90;;;;;;4988660;28;20449;-87
2022/04/03 09:40:32;;;;;;;1.03;1.03;;;8.70;99.90;;;;;;4993739;28;20450;-87
2022/04/03 09:43:16;;;;;;;0.30;0.30;;;8.40;99.90;;;;;;4993568;28;20439;-88
2022/04/03 09:45:49;;;;;;;1.13;1.13;;;8.20;99.90;;;;;;4982897;28;20448;-88
2022/04/03 09:48:25;;;;;;;0.50;0.50;;;8.20;99.90;;;;;;5007760;28;20948;-89
2022/04/03 09:50:59;;;;;;;0.40;0.40;;;8.00;99.90;;;;;;5010597;28;20982;-87
2022/04/03 09:53:28;;;;;;;0.30;0.30;;;8.00;99.90;;;;;;5010086;28;20474;-88
2022/04/03 09:55:53;;;;;;;0.30;0.30;;;8.00;99.90;;;;;;4984620;28;20490;-88
2022/04/03 09:58:19;;;;;;;0.37;0.37;;;9.20;99.90;;;;;;4999724;28;20444;-87
2022/04/03 10:00:44;;;;;;;0.20;0.20;;;9.50;99.90;;;;;;4993737;28;20688;-86
2022/04/03 10:03:11;;;;;;;0.20;0.20;;;10.50;99.90;;;;;;5001526;28;20184;-86
2022/04/03 10:05:37;;;;;;;0.20;0.20;;;10.30;99.90;;;;;;5010479;28;20698;-86
2022/04/03 10:08:05;;;;;;;0.20;0.20;;;9.60;99.90;;;;;;4991892;28;20451;-89
2022/04/03 10:10:33;;;;;;;0.20;0.20;;;9.20;99.90;;;;;;4993056;28;20451;-88
2022/04/03 10:12:59;;;;;;;0.20;0.20;;;8.90;99.90;;;;;;5001775;28;20461;-88
2022/04/03 10:15:27;;;;;;;0.20;0.20;;;8.40;99.90;;;;;;5009114;28;20499;-89
2022/04/03 10:17:52;;;;;;;0.20;0.20;;;8.10;99.90;;;;;;5010378;28;20462;-88
2022/04/03 10:20:18;;;;;;;0.30;0.30;;;8.30;99.90;;;;;;5011677;28;20436;-89
2022/04/03 10:22:49;;;;;;;0.20;0.20;;;8.30;99.90;;;;;;5007535;28;20474;-88
2022/04/03 10:25:22;;;;;;;0.23;0.23;;;8.70;99.90;;;;;;5005254;28;20216;-89
2022/04/03 10:27:50;;;;;;;0.30;0.30;;;8.50;99.90;;;;;;5011829;28;20435;-90
2022/04/03 10:30:17;;;;;;;0.23;0.23;;;8.20;99.90;;;;;;4993909;28;20459;-92
2022/04/03 10:32:56;;;;;;;0.27;0.27;;;7.90;99.90;;;;;;5013492;28;20423;-89
2022/04/03 10:35:22;;;;;;;0.20;0.20;;;8.30;99.90;;;;;;4998552;28;20467;-90
2022/04/03 10:38:04;;;;;;;0.30;0.30;;;8.40;99.90;;;;;;5013078;28;20437;-92
2022/04/03 10:40:35;;;;;;;0.27;0.27;;;8.00;99.90;;;;;;5003604;28;20184;-87
2022/04/03 10:43:05;;;;;;;0.30;0.30;;;7.10;99.90;;;;;;5019369;28;20447;-91
2022/04/03 10:45:44;;;;;;;0.33;0.33;;;6.30;99.90;;;;;;4988662;28;20551;-89
2022/04/03 10:48:21;;;;;;;0.30;0.30;;;5.40;99.90;;;;;;5009054;28;20439;-90
2022/04/03 10:51:11;;;;;;;0.30;0.30;;;5.00;99.90;;;;;;5007482;28;20446;-92
2022/04/03 10:53:40;;;;;;;0.37;0.37;;;5.00;99.90;;;;;;5007059;28;20469;-93
2022/04/03 10:56:19;;;;;;;0.40;0.40;;;4.80;99.90;;;;;;4993812;28;20514;-92
2022/04/03 10:58:46;;;;;;;0.40;0.40;;;5.00;99.90;;;;;;5007009;28;20444;-91
2022/04/03 11:01:33;;;;;;;0.40;0.40;;;5.10;99.90;;;;;;4993907;28;20458;-90
2022/04/03 11:04:21;;;;;;;0.40;0.40;;;5.40;99.90;;;;;;4987709;28;20424;-89
2022/04/03 11:06:50;;;;;;;0.30;0.30;;;5.30;99.90;;;;;;5008678;28;20800;-91
2022/04/03 11:09:23;;;;;;;0.30;0.30;;;5.50;99.90;;;;;;5004654;28;20446;-89
2022/04/03 11:11:57;;;;;;;0.40;0.40;;;5.50;99.90;;;;;;4996417;28;20446;-90
2022/04/03 11:14:58;;;;;;;0.30;0.30;;;5.80;99.90;;;;;;4992976;28;20994;-89
2022/04/03 11:17:48;;;;;;;0.30;0.30;;;6.30;99.90;;;;;;4998796;28;20504;-90
2022/04/03 11:20:37;;;;;;;0.30;0.30;;;6.50;99.90;;;;;;5009137;28;20503;-88
2022/04/03 11:23:04;;;;;;;0.30;0.30;;;6.40;99.90;;;;;;5011329;28;21064;-89
2022/04/03 11:25:30;;;;;;;1.03;1.03;;;7.20;99.90;;;;;;5010762;28;20451;-90
2022/04/03 11:27:56;;;;;;;0.20;0.20;;;8.30;99.90;;;;;;5010780;28;20445;-88
2022/04/03 11:30:21;;;;;;;0.20;0.20;;;8.70;99.90;;;;;;4997567;28;20184;-91
2022/04/03 11:32:48;;;;;;;1.90;1.90;;;9.30;99.90;;;;;;5010979;28;20449;-92
2022/04/03 11:35:14;;;;;;;0.20;0.20;;;10.70;99.90;;;;;;5004992;28;20219;-88
2022/04/03 11:37:44;;;;;;;0.10;0.10;;;11.40;99.90;;;;;;5007956;28;20526;-90
2022/04/03 11:40:12;;;;;;;0.10;0.10;;;12.00;99.90;;;;;;4993708;28;20193;-90
2022/04/03 11:42:37;;;;;;;0.10;0.10;;;12.90;99.90;;;;;;4985094;28;20793;-90
2022/04/03 11:45:07;;;;;;;0.10;0.10;;;12.40;99.90;;;;;;5002163;28;20458;-93
2022/04/03 11:47:33;;;;;;;0.10;0.10;;;13.00;99.90;;;;;;4999552;28;20181;-90
2022/04/03 11:50:11;;;;;;;0.10;0.10;;;13.00;99.90;;;;;;4983936;28;20444;-89
2022/04/03 11:52:38;;;;;;;0.10;0.10;;;13.40;99.90;;;;;;5007884;28;20542;-90
2022/04/03 11:55:10;;;;;;;0.10;0.10;;;12.80;99.90;;;;;;5002767;28;20490;-88
2022/04/03 11:57:35;;;;;;;0.20;0.10;;;12.30;99.90;;;;;;5003817;28;20508;-91
2022/04/03 12:00:01;;;;;;;0.10;0.10;;;10.90;99.90;;;;;;5007238;28;20850;-91
2022/04/03 12:02:27;;;;;;;0.10;0.10;;;11.50;99.90;;;;;;4994408;28;20697;-91
2022/04/03 12:04:57;;;;;;;0.10;0.10;;;11.20;99.90;;;;;;5003670;28;20192;-88
2022/04/03 12:07:23;;;;;;;0.10;0.10;;;10.70;99.90;;;;;;4988002;28;20189;-90
2022/04/03 12:09:49;;;;;;;0.20;0.20;;;10.00;99.90;;;;;;4992121;28;20447;-90
2022/04/03 12:12:21;;;;;;;0.20;0.20;;;9.80;99.90;;;;;;5015019;28;20922;-89
2022/04/03 12:14:47;;;;;;;0.20;0.20;;;10.20;99.90;;;;;;4992518;28;20586;-87
2022/04/03 12:17:15;;;;;;;0.20;0.20;;;10.80;99.90;;;;;;4992340;28;20601;-86
2022/04/03 12:19:47;;;;;;;1.77;1.77;;;10.20;99.90;;;;;;5011166;28;20195;-88
2022/04/03 12:22:18;;;;;;;0.20;0.20;;;9.90;99.90;;;;;;4997888;28;20426;-89
2022/04/03 12:24:45;;;;;;;0.20;0.20;;;9.30;99.90;;;;;;5005553;28;20485;-88
2022/04/03 12:27:14;;;;;;;0.20;0.20;;;8.80;99.90;;;;;;4987472;28;20454;-91
2022/04/03 12:29:45;;;;;;;0.20;0.20;;;8.50;99.90;;;;;;5008121;28;20455;-88
2022/04/03 12:32:13;;;;;;;0.20;0.20;;;8.90;99.90;;;;;;4993607;28;20488;-88
2022/04/03 12:34:48;;;;;;;0.20;0.20;;;9.10;99.90;;;;;;4991696;28;20495;-88
2022/04/03 12:37:15;;;;;;;0.20;0.20;;;9.10;99.90;;;;;;4987364;28;20493;-90
2022/04/03 12:39:50;;;;;;;0.20;0.20;;;9.90;99.90;;;;;;5010940;28;20812;-88
2022/04/03 12:42:19;;;;;;;0.20;0.20;;;9.30;99.90;;;;;;4998510;28;20443;-89
2022/04/03 12:45:11;;;;;;;0.30;0.30;;;8.90;99.90;;;;;;4994354;28;20455;-89
2022/04/03 12:47:42;;;;;;;0.27;0.27;;;8.70;99.90;;;;;;5003997;28;20440;-91
2022/04/03 12:50:08;;;;;;;0.20;0.20;;;8.60;99.90;;;;;;5006644;28;20845;-89
2022/04/03 12:52:49;;;;;;;0.20;0.20;;;8.50;99.90;;;;;;5008271;28;20477;-90
2022/04/03 13:00:52;;;;;;;0.20;0.20;;;10.70;99.90;;;;;;5006717;28;20486;-88
2022/04/03 13:03:47;;;;;;;0.20;0.20;;;11.00;99.90;;;;;;5008976;28;20442;-88
2022/04/03 13:06:27;;;;;;;0.20;0.20;;;10.80;99.90;;;;;;4991579;28;20451;-88
2022/04/03 13:08:57;;;;;;;0.20;0.17;;;10.60;99.90;;;;;;4990825;28;20497;-87
2022/04/03 13:11:47;;;;;;;0.20;0.20;;;9.90;99.90;;;;;;5005539;28;20446;-91
2022/04/03 13:14:16;;;;;;;0.30;0.30;;;9.20;99.90;;;;;;5010134;28;20578;-89
2022/04/03 13:16:42;;;;;;;0.20;0.20;;;8.30;99.90;;;;;;5008054;28;20509;-90
2022/04/03 13:19:08;;;;;;;0.20;0.20;;;8.90;99.90;;;;;;4991633;28;20438;-90
2022/04/03 13:21:38;;;;;;;0.20;0.20;;;10.00;99.90;;;;;;4992078;28;20222;-87